• Join FlightAware (Why Join?)
  • Login
  • US Flag 
01:42PM EDT


 

Airport Tracker/Info


-or-


 

Live Flight TrackerFlight Track Log ✈ N779NC ✈ 05-Jul-2013 ✈ KBNA - KDTW

Flight Track Log - Related Links

Times and Time Zones

All times are in EDT time to prevent confusion due to time zone crossing. See the N779NC flight status page for this flight to view local times or setup timezone preferences in your user account.

Time Position Orientation Groundspeed Altitude Reporting Facility
EDT Latitude Longitude Course Direction KTS MPH feet Rate Location/Type
07:54AM 36.1167 -86.6833 340° North 149 171 1,400  Level Nashville TRACON
07:55AM 36.1000 -86.7500 253° West 216 249 2,900 1,800 Climbing Nashville TRACON
07:56AM 36.1667 -86.7667 349° North 252 290 5,000 2,220 Climbing Nashville TRACON
07:57AM 36.5507 -86.8753 338° Northwest  Level FlightAware Approximate
07:57AM 36.2500 -86.7667 360° North 277 319 7,400  Level Nashville TRACON
07:58AM 36.6587 -86.9293 338° Northwest  Level FlightAware Approximate
07:58AM 36.3400 -86.7656 North 285 328 10,500  Level Memphis Center
07:59AM 36.7676 -86.9803 340° North  Level FlightAware Approximate
07:59AM 36.4272 -86.7514 North 301 346 12,600  Level Memphis Center
08:00AM 36.5217 -86.7083 20° North 338 389 13,500 1,440 Climbing Memphis Center
08:01AM 36.6119 -86.6553 25° Northeast 373 429 15,500 1,920 Climbing Memphis Center
08:02AM 36.7186 -86.6036 21° North 403 464 17,400 1,800 Climbing Memphis Center
08:03AM 36.8367 -86.5775 10° North 420 483 19,100 1,560 Climbing Memphis Center
08:04AM 36.9581 -86.5925 354° North 426 490 20,600 1,380 Climbing Memphis Center
08:06AM 37.2333 -86.6064 358° North 459 528 23,500 1,260 Climbing Indianapolis Center
08:07AM 37.3661 -86.6161 357° North 471 542 24,800 1,140 Climbing Indianapolis Center
08:08AM 37.5014 -86.6114 North 480 552 25,900 1,260 Climbing Indianapolis Center
08:09AM 37.6306 -86.6042 North 486 559 27,400 1,200 Climbing Indianapolis Center
08:10AM 37.7658 -86.6111 358° North 485 558 28,400 900 Climbing Indianapolis Center
08:11AM 37.9036 -86.6119 360° North 494 568 29,300 1,080 Climbing Indianapolis Center
08:12AM 38.0697 -86.6019 North 499 574 30,600 1,320 Climbing Indianapolis Center
08:13AM 38.2064 -86.6033 360° North 495 570 32,100 1,080 Climbing Indianapolis Center
08:14AM 38.3419 -86.6078 359° North 492 566 32,900 420 Climbing Indianapolis Center
08:15AM 38.4806 -86.6022 North 499 574 33,000  Climbing Indianapolis Center
08:16AM 38.6258 -86.5892 North 518 596 33,000  Level Indianapolis Center
08:17AM 38.7711 -86.5744 North 523 602 33,000  Level Indianapolis Center
08:18AM 38.9119 -86.5692 North 516 594 33,000  Level Indianapolis Center
08:19AM 39.0531 -86.5458 North 513 590 33,000  Level Indianapolis Center
08:20AM 39.1944 -86.5233 North 511 588 33,100  Climbing Indianapolis Center
08:21AM 39.3339 -86.4894 11° North 512 589 33,000 -60 Descending Indianapolis Center
08:22AM 39.4742 -86.4553 11° North 512 589 33,000  Level Indianapolis Center
08:23AM 39.6169 -86.4289 North 514 592 33,000  Level Indianapolis Center
08:24AM 39.7622 -86.3950 10° North 516 594 33,000  Level Indianapolis Center
08:25AM 39.9075 -86.3433 15° North 524 603 33,100  Climbing Indianapolis Center
08:26AM 40.0278 -86.2431 33° Northeast 513 590 33,000 -300 Descending Indianapolis Center
08:27AM 40.1433 -86.1342 36° Northeast 511 588 32,600 -780 Descending Chicago Center
08:28AM 40.2619 -86.0286 34° Northeast 513 590 31,500 -1,140 Descending Chicago Center
08:29AM 40.3844 -85.9244 33° Northeast 521 600 30,400 -1,140 Descending Chicago Center
08:30AM 40.5053 -85.8219 33° Northeast 521 600 29,200 -1,200 Descending Chicago Center
08:31AM 40.6169 -85.7042 39° Northeast 516 594 28,000 -1,200 Descending Chicago Center
08:32AM 40.7194 -85.5753 44° Northeast 512 589 26,800 -1,680 Descending Chicago Center
08:33AM 40.8386 -85.4206 44° Northeast 504 580 24,600 -1,800 Descending Chicago Center
08:34AM 40.9289 -85.2928 47° Northeast 485 558 23,200 -1,140 Descending Chicago Center
08:35AM 41.0200 -85.1675 46° Northeast 480 552 22,300 -840 Descending Chicago Center
08:37AM 41.1150 -85.0494 43° Northeast 476 548 21,500 -660 Descending Chicago Center
08:38AM 41.2136 -84.9431 39° Northeast 466 536 21,000 -300 Descending Chicago Center
08:39AM 41.3119 -84.8381 39° Northeast 460 529 21,000 -180 Level Chicago Center
08:40AM 41.4072 -84.7278 41° Northeast 459 528 20,700 -1,140 Descending Chicago Center
08:41AM 41.4997 -84.6314 38° Northeast 433 498 18,700 -2,160 Descending Chicago Center
08:42AM 41.6017 -84.5236 38° Northeast 398 458 16,300 -2,100 Descending Chicago Center
08:42AM 41.6656 -84.4472 42° Northeast 398 458 14,900 -1,800 Descending Cleveland Center
08:43AM 41.7111 -84.3303 62° Northeast 360 414 13,100 -1,320 Descending Cleveland Center
08:44AM 41.7458 -84.2208 67° East 350 403 12,300 -540 Descending Cleveland Center
08:45AM 41.7892 -84.0981 65° Northeast 350 403 12,100 -120 Descending Cleveland Center
08:46AM 41.8344 -83.9833 62° Northeast 350 403 12,100 -60 Level Cleveland Center
08:47AM 41.9081 -83.8925 43° Northeast 350 403 12,000 -60 Descending Cleveland Center
08:48AM 41.9817 -83.7983 44° Northeast 350 403 12,000  Level Cleveland Center
08:49AM 42.0550 -83.7097 42° Northeast 350 403 12,000  Level Cleveland Center
08:50AM 42.1261 -83.6236 42° Northeast 350 403 12,000  Level Cleveland Center
08:51AM 42.2094 -83.5436 35° Northeast 340 391 12,100 -600 Climbing Cleveland Center
08:52AM 42.2858 -83.4967 24° Northeast 307 353 10,900 -1,200 Descending Cleveland Center
08:53AM 42.3469 -83.4600 24° Northeast 290 334 9,800 -1,620 Descending Cleveland Center
08:54AM 42.4147 -83.4239 21° North 266 306 7,700 -1,320 Descending Cleveland Center
08:56AM 42.4906 -83.3933 17° North 203 234 7,000 -480 Descending Cleveland Center
08:57AM 42.5411 -83.3703 19° North 190 219 6,700 -960 Descending Cleveland Center
08:58AM 42.5797 -83.3183 45° Northeast 197 227 5,100 -1,200 Descending Cleveland Center
08:59AM 42.5564 -83.2497 115° Southeast 187 215 4,300 -840 Descending Cleveland Center